sensor_id;sensor_type;location;lat;lon;timestamp;temperature;humidity
24091;DHT22;12272;52.426;17.100;2022-12-18T00:00:44;6.80;99.90
24091;DHT22;12272;52.426;17.100;2022-12-18T00:05:50;7.30;95.10
24091;DHT22;12272;52.426;17.100;2022-12-18T00:10:53;7.00;98.80
24091;DHT22;12272;52.426;17.100;2022-12-18T00:16:06;6.10;86.50
24091;DHT22;12272;52.426;17.100;2022-12-18T00:21:11;5.80;92.20
24091;DHT22;12272;52.426;17.100;2022-12-18T00:26:19;5.80;99.90
24091;DHT22;12272;52.426;17.100;2022-12-18T00:31:25;4.60;94.80
24091;DHT22;12272;52.426;17.100;2022-12-18T00:36:32;4.40;93.70
24091;DHT22;12272;52.426;17.100;2022-12-18T00:41:35;4.20;99.90
24091;DHT22;12272;52.426;17.100;2022-12-18T00:46:56;6.00;99.90
24091;DHT22;12272;52.426;17.100;2022-12-18T00:51:59;4.90;93.90
24091;DHT22;12272;52.426;17.100;2022-12-18T00:57:02;5.20;98.80
24091;DHT22;12272;52.426;17.100;2022-12-18T01:02:04;4.00;96.70
24091;DHT22;12272;52.426;17.100;2022-12-18T01:07:08;4.20;99.90
24091;DHT22;12272;52.426;17.100;2022-12-18T01:12:11;3.70;99.90
24091;DHT22;12272;52.426;17.100;2022-12-18T01:17:13;4.80;99.90
24091;DHT22;12272;52.426;17.100;2022-12-18T01:22:16;4.70;98.20
24091;DHT22;12272;52.426;17.100;2022-12-18T01:27:19;4.40;98.40
24091;DHT22;12272;52.426;17.100;2022-12-18T01:32:21;4.40;99.90
24091;DHT22;12272;52.426;17.100;2022-12-18T01:37:24;3.80;99.90
24091;DHT22;12272;52.426;17.100;2022-12-18T01:42:27;4.20;99.90
24091;DHT22;12272;52.426;17.100;2022-12-18T01:52:43;4.80;98.80
24091;DHT22;12272;52.426;17.100;2022-12-18T01:57:47;4.20;98.70
24091;DHT22;12272;52.426;17.100;2022-12-18T02:02:49;4.90;99.90
24091;DHT22;12272;52.426;17.100;2022-12-18T02:13:36;5.10;99.90
24091;DHT22;12272;52.426;17.100;2022-12-18T02:18:45;5.00;91.80
24091;DHT22;12272;52.426;17.100;2022-12-18T02:29:21;1.60;92.30
24091;DHT22;12272;52.426;17.100;2022-12-18T02:34:28;0.50;99.90
24091;DHT22;12272;52.426;17.100;2022-12-18T02:39:33;-0.30;99.90
24091;DHT22;12272;52.426;17.100;2022-12-18T02:44:44;1.00;99.90
24091;DHT22;12272;52.426;17.100;2022-12-18T03:00:12;4.70;99.90
24091;DHT22;12272;52.426;17.100;2022-12-18T03:05:28;3.80;97.50
24091;DHT22;12272;52.426;17.100;2022-12-18T03:10:38;3.80;99.90
24091;DHT22;12272;52.426;17.100;2022-12-18T03:15:45;4.20;99.90
24091;DHT22;12272;52.426;17.100;2022-12-18T03:20:51;4.60;99.90
24091;DHT22;12272;52.426;17.100;2022-12-18T03:25:59;3.50;91.10
24091;DHT22;12272;52.426;17.100;2022-12-18T03:31:12;1.60;96.60
24091;DHT22;12272;52.426;17.100;2022-12-18T03:36:16;0.50;99.90
24091;DHT22;12272;52.426;17.100;2022-12-18T03:52:41;0.50;92.10
24091;DHT22;12272;52.426;17.100;2022-12-18T03:57:46;0.40;99.90
24091;DHT22;12272;52.426;17.100;2022-12-18T04:02:54;-0.80;99.90
24091;DHT22;12272;52.426;17.100;2022-12-18T04:08:05;-0.90;99.90
24091;DHT22;12272;52.426;17.100;2022-12-18T04:13:11;2.30;99.90
24091;DHT22;12272;52.426;17.100;2022-12-18T04:18:15;2.40;99.90
24091;DHT22;12272;52.426;17.100;2022-12-18T04:23:18;2.50;99.90
24091;DHT22;12272;52.426;17.100;2022-12-18T04:28:21;1.00;99.90
24091;DHT22;12272;52.426;17.100;2022-12-18T04:33:24;-0.30;97.20
24091;DHT22;12272;52.426;17.100;2022-12-18T04:38:27;-0.10;99.90
24091;DHT22;12272;52.426;17.100;2022-12-18T04:43:37;-0.30;99.90
24091;DHT22;12272;52.426;17.100;2022-12-18T04:48:42;-0.90;99.90
24091;DHT22;12272;52.426;17.100;2022-12-18T04:53:47;-1.50;99.90
24091;DHT22;12272;52.426;17.100;2022-12-18T04:58:49;0.30;99.90
24091;DHT22;12272;52.426;17.100;2022-12-18T05:03:52;2.30;99.90
24091;DHT22;12272;52.426;17.100;2022-12-18T05:08:54;3.20;99.90
24091;DHT22;12272;52.426;17.100;2022-12-18T05:13:56;1.50;96.20
24091;DHT22;12272;52.426;17.100;2022-12-18T05:19:02;-0.80;99.10
24091;DHT22;12272;52.426;17.100;2022-12-18T05:24:08;-1.60;99.90
24091;DHT22;12272;52.426;17.100;2022-12-18T05:29:10;-1.20;99.90
24091;DHT22;12272;52.426;17.100;2022-12-18T05:34:15;1.90;99.90
24091;DHT22;12272;52.426;17.100;2022-12-18T05:39:17;3.30;99.90
24091;DHT22;12272;52.426;17.100;2022-12-18T05:44:20;3.60;99.20
24091;DHT22;12272;52.426;17.100;2022-12-18T05:49:22;1.40;86.70
24091;DHT22;12272;52.426;17.100;2022-12-18T05:54:27;-0.50;97.40
24091;DHT22;12272;52.426;17.100;2022-12-18T05:59:30;-0.30;99.90
24091;DHT22;12272;52.426;17.100;2022-12-18T06:04:32;0.20;99.90
24091;DHT22;12272;52.426;17.100;2022-12-18T06:09:35;0.20;97.70
24091;DHT22;12272;52.426;17.100;2022-12-18T06:14:37;-1.40;99.90
24091;DHT22;12272;52.426;17.100;2022-12-18T06:19:40;1.10;99.90
24091;DHT22;12272;52.426;17.100;2022-12-18T06:24:42;2.50;99.90
24091;DHT22;12272;52.426;17.100;2022-12-18T06:29:44;3.80;99.90
24091;DHT22;12272;52.426;17.100;2022-12-18T06:34:47;4.20;89.70
24091;DHT22;12272;52.426;17.100;2022-12-18T06:39:50;0.80;84.10
24091;DHT22;12272;52.426;17.100;2022-12-18T06:44:52;0.30;95.90
24091;DHT22;12272;52.426;17.100;2022-12-18T06:49:54;-0.90;99.90
24091;DHT22;12272;52.426;17.100;2022-12-18T06:54:57;-0.10;97.30
24091;DHT22;12272;52.426;17.100;2022-12-18T06:59:59;-1.10;99.90
24091;DHT22;12272;52.426;17.100;2022-12-18T07:05:02;-1.40;99.90
24091;DHT22;12272;52.426;17.100;2022-12-18T07:10:11;1.20;99.90
24091;DHT22;12272;52.426;17.100;2022-12-18T07:15:14;1.20;93.90
24091;DHT22;12272;52.426;17.100;2022-12-18T07:20:16;1.40;99.90
24091;DHT22;12272;52.426;17.100;2022-12-18T07:25:19;2.10;99.90
24091;DHT22;12272;52.426;17.100;2022-12-18T07:30:21;1.00;93.80
24091;DHT22;12272;52.426;17.100;2022-12-18T07:35:23;-0.70;99.30
24091;DHT22;12272;52.426;17.100;2022-12-18T07:40:26;-0.50;99.90
24091;DHT22;12272;52.426;17.100;2022-12-18T07:45:29;-1.40;99.90
24091;DHT22;12272;52.426;17.100;2022-12-18T07:50:31;-1.90;99.90
24091;DHT22;12272;52.426;17.100;2022-12-18T07:55:33;-0.80;99.90
24091;DHT22;12272;52.426;17.100;2022-12-18T08:01:07;2.20;99.90
24091;DHT22;12272;52.426;17.100;2022-12-18T08:06:10;2.30;99.90
24091;DHT22;12272;52.426;17.100;2022-12-18T08:11:12;0.60;95.10
24091;DHT22;12272;52.426;17.100;2022-12-18T08:16:15;-0.10;99.90
24091;DHT22;12272;52.426;17.100;2022-12-18T08:21:20;1.40;99.90
24091;DHT22;12272;52.426;17.100;2022-12-18T08:26:27;4.00;99.90
24091;DHT22;12272;52.426;17.100;2022-12-18T08:31:30;5.90;99.90
24091;DHT22;12272;52.426;17.100;2022-12-18T08:36:33;4.20;93.90
24091;DHT22;12272;52.426;17.100;2022-12-18T08:41:35;3.90;94.40
24091;DHT22;12272;52.426;17.100;2022-12-18T08:46:39;1.60;85.40
24091;DHT22;12272;52.426;17.100;2022-12-18T08:51:42;-0.30;98.30
24091;DHT22;12272;52.426;17.100;2022-12-18T08:56:44;0.10;99.90
24091;DHT22;12272;52.426;17.100;2022-12-18T09:01:47;0.20;99.90
24091;DHT22;12272;52.426;17.100;2022-12-18T09:06:50;0.50;99.10
24091;DHT22;12272;52.426;17.100;2022-12-18T09:11:55;-0.20;99.60
24091;DHT22;12272;52.426;17.100;2022-12-18T09:16:58;-0.50;99.90
24091;DHT22;12272;52.426;17.100;2022-12-18T09:22:00;-0.50;99.90
24091;DHT22;12272;52.426;17.100;2022-12-18T09:27:06;-0.60;99.90
24091;DHT22;12272;52.426;17.100;2022-12-18T09:32:08;-0.50;99.90
24091;DHT22;12272;52.426;17.100;2022-12-18T09:37:11;-0.90;99.90
24091;DHT22;12272;52.426;17.100;2022-12-18T09:42:22;-0.40;99.90
24091;DHT22;12272;52.426;17.100;2022-12-18T09:47:28;-0.80;99.90
24091;DHT22;12272;52.426;17.100;2022-12-18T09:52:42;0.40;99.90
24091;DHT22;12272;52.426;17.100;2022-12-18T09:57:51;0.40;99.90
24091;DHT22;12272;52.426;17.100;2022-12-18T10:03:10;0.50;99.90
24091;DHT22;12272;52.426;17.100;2022-12-18T10:08:16;2.40;99.90
24091;DHT22;12272;52.426;17.100;2022-12-18T10:13:33;1.70;97.50
24091;DHT22;12272;52.426;17.100;2022-12-18T10:18:50;1.80;99.90
24091;DHT22;12272;52.426;17.100;2022-12-18T10:29:25;2.80;86.70
24091;DHT22;12272;52.426;17.100;2022-12-18T10:34:28;2.70;99.90
24091;DHT22;12272;52.426;17.100;2022-12-18T10:39:30;2.20;95.40
24091;DHT22;12272;52.426;17.100;2022-12-18T10:44:33;0.90;98.10
24091;DHT22;12272;52.426;17.100;2022-12-18T10:49:35;0.30;99.90
24091;DHT22;12272;52.426;17.100;2022-12-18T10:54:39;0.00;99.90
24091;DHT22;12272;52.426;17.100;2022-12-18T10:59:51;0.20;99.90
24091;DHT22;12272;52.426;17.100;2022-12-18T11:04:54;0.10;99.90
24091;DHT22;12272;52.426;17.100;2022-12-18T11:10:00;1.00;99.90
24091;DHT22;12272;52.426;17.100;2022-12-18T11:15:03;1.20;99.90
24091;DHT22;12272;52.426;17.100;2022-12-18T11:20:30;0.40;99.90
24091;DHT22;12272;52.426;17.100;2022-12-18T11:25:33;0.20;99.90
24091;DHT22;12272;52.426;17.100;2022-12-18T11:30:37;-0.20;99.90
24091;DHT22;12272;52.426;17.100;2022-12-18T11:40:49;0.50;99.90
24091;DHT22;12272;52.426;17.100;2022-12-18T11:46:01;0.20;99.90
24091;DHT22;12272;52.426;17.100;2022-12-18T11:51:15;0.10;99.90
24091;DHT22;12272;52.426;17.100;2022-12-18T11:56:35;0.10;99.90
24091;DHT22;12272;52.426;17.100;2022-12-18T12:02:30;0.40;99.90
24091;DHT22;12272;52.426;17.100;2022-12-18T12:07:48;-0.50;99.90
24091;DHT22;12272;52.426;17.100;2022-12-18T12:24:03;1.50;96.20
24091;DHT22;12272;52.426;17.100;2022-12-18T12:39:47;0.40;99.90
24091;DHT22;12272;52.426;17.100;2022-12-18T12:44:55;0.10;99.90
24091;DHT22;12272;52.426;17.100;2022-12-18T12:50:03;0.10;99.90
24091;DHT22;12272;52.426;17.100;2022-12-18T12:55:18;-0.30;99.90
24091;DHT22;12272;52.426;17.100;2022-12-18T13:00:23;-0.30;99.90
24091;DHT22;12272;52.426;17.100;2022-12-18T13:05:38;-0.50;99.90
24091;DHT22;12272;52.426;17.100;2022-12-18T13:10:44;-0.60;99.90
24091;DHT22;12272;52.426;17.100;2022-12-18T13:21:03;1.20;97.90
24091;DHT22;12272;52.426;17.100;2022-12-18T13:36:36;-1.40;99.90
24091;DHT22;12272;52.426;17.100;2022-12-18T13:41:38;-1.90;99.90
24091;DHT22;12272;52.426;17.100;2022-12-18T13:46:46;-2.00;99.90
24091;DHT22;12272;52.426;17.100;2022-12-18T13:51:54;-1.90;99.90
24091;DHT22;12272;52.426;17.100;2022-12-18T13:56:57;-1.70;99.90
24091;DHT22;12272;52.426;17.100;2022-12-18T14:02:17;-1.20;99.90
24091;DHT22;12272;52.426;17.100;2022-12-18T14:07:25;-1.30;99.90
24091;DHT22;12272;52.426;17.100;2022-12-18T14:12:32;-1.20;99.90
24091;DHT22;12272;52.426;17.100;2022-12-18T14:18:03;-1.50;99.90
24091;DHT22;12272;52.426;17.100;2022-12-18T14:23:33;-1.70;99.90
24091;DHT22;12272;52.426;17.100;2022-12-18T14:28:43;-2.00;99.90
24091;DHT22;12272;52.426;17.100;2022-12-18T14:33:45;-2.10;99.90
24091;DHT22;12272;52.426;17.100;2022-12-18T14:38:50;-1.40;99.90
24091;DHT22;12272;52.426;17.100;2022-12-18T14:43:54;-1.40;99.90
24091;DHT22;12272;52.426;17.100;2022-12-18T14:48:57;-1.50;99.90
24091;DHT22;12272;52.426;17.100;2022-12-18T14:54:01;-0.90;99.90
24091;DHT22;12272;52.426;17.100;2022-12-18T14:59:12;-0.30;99.90
24091;DHT22;12272;52.426;17.100;2022-12-18T15:04:35;-0.40;99.90
24091;DHT22;12272;52.426;17.100;2022-12-18T15:09:39;-0.40;99.90
24091;DHT22;12272;52.426;17.100;2022-12-18T15:14:41;0.20;99.90
24091;DHT22;12272;52.426;17.100;2022-12-18T15:19:45;-0.20;99.90
24091;DHT22;12272;52.426;17.100;2022-12-18T15:24:49;-0.50;99.90
24091;DHT22;12272;52.426;17.100;2022-12-18T15:35:23;1.50;99.90
24091;DHT22;12272;52.426;17.100;2022-12-18T15:40:26;2.30;97.30
24091;DHT22;12272;52.426;17.100;2022-12-18T15:45:28;1.20;96.50
24091;DHT22;12272;52.426;17.100;2022-12-18T15:50:31;0.50;99.70
24091;DHT22;12272;52.426;17.100;2022-12-18T15:55:33;-0.10;99.90
24091;DHT22;12272;52.426;17.100;2022-12-18T16:01:02;0.10;99.90
24091;DHT22;12272;52.426;17.100;2022-12-18T16:06:05;0.00;99.90
24091;DHT22;12272;52.426;17.100;2022-12-18T16:11:24;0.20;99.90
24091;DHT22;12272;52.426;17.100;2022-12-18T16:16:40;0.50;99.90
24091;DHT22;12272;52.426;17.100;2022-12-18T16:21:43;0.70;99.90
24091;DHT22;12272;52.426;17.100;2022-12-18T16:26:45;1.90;99.90
24091;DHT22;12272;52.426;17.100;2022-12-18T16:31:48;1.80;97.60
24091;DHT22;12272;52.426;17.100;2022-12-18T16:36:50;3.40;99.90
24091;DHT22;12272;52.426;17.100;2022-12-18T16:41:53;4.80;99.00
24091;DHT22;12272;52.426;17.100;2022-12-18T16:52:05;-2.10;99.90
24091;DHT22;12272;52.426;17.100;2022-12-18T17:07:19;-4.30;99.90
24091;DHT22;12272;52.426;17.100;2022-12-18T17:12:22;-4.80;99.90
24091;DHT22;12272;52.426;17.100;2022-12-18T17:17:24;-5.00;99.90
24091;DHT22;12272;52.426;17.100;2022-12-18T17:22:26;-5.20;99.90
24091;DHT22;12272;52.426;17.100;2022-12-18T17:27:29;-5.30;99.90
24091;DHT22;12272;52.426;17.100;2022-12-18T17:32:32;-5.40;99.90
24091;DHT22;12272;52.426;17.100;2022-12-18T17:37:34;-5.40;99.90
24091;DHT22;12272;52.426;17.100;2022-12-18T17:42:36;-5.50;99.90
24091;DHT22;12272;52.426;17.100;2022-12-18T17:47:39;-5.40;99.90
24091;DHT22;12272;52.426;17.100;2022-12-18T17:52:41;-5.40;99.90
24091;DHT22;12272;52.426;17.100;2022-12-18T18:02:47;-3.40;99.90
24091;DHT22;12272;52.426;17.100;2022-12-18T18:07:50;-2.70;99.90
24091;DHT22;12272;52.426;17.100;2022-12-18T18:12:53;-1.60;99.90
24091;DHT22;12272;52.426;17.100;2022-12-18T18:18:14;-1.40;99.90
24091;DHT22;12272;52.426;17.100;2022-12-18T18:23:18;0.00;99.90
24091;DHT22;12272;52.426;17.100;2022-12-18T18:28:24;1.20;99.90
24091;DHT22;12272;52.426;17.100;2022-12-18T18:33:26;1.30;99.90
24091;DHT22;12272;52.426;17.100;2022-12-18T18:38:29;1.40;99.90
24091;DHT22;12272;52.426;17.100;2022-12-18T18:43:31;2.10;99.90
24091;DHT22;12272;52.426;17.100;2022-12-18T18:48:35;0.80;99.90
24091;DHT22;12272;52.426;17.100;2022-12-18T18:53:41;0.60;99.90
24091;DHT22;12272;52.426;17.100;2022-12-18T18:58:45;0.50;98.30
24091;DHT22;12272;52.426;17.100;2022-12-18T19:03:48;-2.90;99.90
24091;DHT22;12272;52.426;17.100;2022-12-18T19:08:52;-3.90;99.90
24091;DHT22;12272;52.426;17.100;2022-12-18T19:13:56;-4.50;99.90
24091;DHT22;12272;52.426;17.100;2022-12-18T19:18:59;-5.00;99.90
24091;DHT22;12272;52.426;17.100;2022-12-18T19:24:04;-5.20;99.90
24091;DHT22;12272;52.426;17.100;2022-12-18T19:29:09;-5.40;99.90
24091;DHT22;12272;52.426;17.100;2022-12-18T19:39:16;-5.60;99.90
24091;DHT22;12272;52.426;17.100;2022-12-18T19:44:20;-5.60;99.90
24091;DHT22;12272;52.426;17.100;2022-12-18T19:49:22;-5.10;99.90
24091;DHT22;12272;52.426;17.100;2022-12-18T19:54:25;-4.40;99.90
24091;DHT22;12272;52.426;17.100;2022-12-18T19:59:27;-3.70;99.90
24091;DHT22;12272;52.426;17.100;2022-12-18T20:04:30;-3.10;99.90
24091;DHT22;12272;52.426;17.100;2022-12-18T20:09:33;-4.20;99.90
24091;DHT22;12272;52.426;17.100;2022-12-18T20:14:38;-5.40;99.90
24091;DHT22;12272;52.426;17.100;2022-12-18T20:19:40;-5.70;99.90
24091;DHT22;12272;52.426;17.100;2022-12-18T20:24:45;-5.80;99.90
24091;DHT22;12272;52.426;17.100;2022-12-18T20:29:50;-5.90;99.90
24091;DHT22;12272;52.426;17.100;2022-12-18T20:34:53;-5.90;99.90
24091;DHT22;12272;52.426;17.100;2022-12-18T20:39:56;-6.00;99.90
24091;DHT22;12272;52.426;17.100;2022-12-18T20:44:59;-6.10;99.90
24091;DHT22;12272;52.426;17.100;2022-12-18T20:50:02;-6.10;99.90
24091;DHT22;12272;52.426;17.100;2022-12-18T20:55:06;-6.10;99.90
24091;DHT22;12272;52.426;17.100;2022-12-18T21:00:09;-6.10;99.90
24091;DHT22;12272;52.426;17.100;2022-12-18T21:05:13;-6.20;99.90
24091;DHT22;12272;52.426;17.100;2022-12-18T21:10:16;-6.10;99.90
24091;DHT22;12272;52.426;17.100;2022-12-18T21:15:20;-6.10;99.90
24091;DHT22;12272;52.426;17.100;2022-12-18T21:20:29;-5.90;99.90
24091;DHT22;12272;52.426;17.100;2022-12-18T21:25:32;-5.20;99.90
24091;DHT22;12272;52.426;17.100;2022-12-18T21:30:35;-5.80;99.90
24091;DHT22;12272;52.426;17.100;2022-12-18T21:35:37;-5.40;99.90
24091;DHT22;12272;52.426;17.100;2022-12-18T21:40:39;-3.30;99.90
24091;DHT22;12272;52.426;17.100;2022-12-18T21:45:42;-1.00;99.90
24091;DHT22;12272;52.426;17.100;2022-12-18T21:50:45;-0.50;99.90
24091;DHT22;12272;52.426;17.100;2022-12-18T21:55:56;-0.30;99.90
24091;DHT22;12272;52.426;17.100;2022-12-18T22:01:00;0.20;99.90
24091;DHT22;12272;52.426;17.100;2022-12-18T22:06:03;0.60;99.90
24091;DHT22;12272;52.426;17.100;2022-12-18T22:11:11;1.10;99.90
24091;DHT22;12272;52.426;17.100;2022-12-18T22:16:14;1.60;99.90
24091;DHT22;12272;52.426;17.100;2022-12-18T22:21:28;1.30;99.90
24091;DHT22;12272;52.426;17.100;2022-12-18T22:26:33;1.90;99.90
24091;DHT22;12272;52.426;17.100;2022-12-18T22:31:41;2.10;99.90
24091;DHT22;12272;52.426;17.100;2022-12-18T22:36:47;2.10;99.90
24091;DHT22;12272;52.426;17.100;2022-12-18T22:41:50;0.70;99.90
24091;DHT22;12272;52.426;17.100;2022-12-18T22:46:53;1.30;99.90
24091;DHT22;12272;52.426;17.100;2022-12-18T22:52:08;2.30;99.90
24091;DHT22;12272;52.426;17.100;2022-12-18T22:57:11;2.50;99.90
24091;DHT22;12272;52.426;17.100;2022-12-18T23:02:14;2.50;99.90
24091;DHT22;12272;52.426;17.100;2022-12-18T23:07:16;2.90;99.90
24091;DHT22;12272;52.426;17.100;2022-12-18T23:12:19;3.40;99.90
24091;DHT22;12272;52.426;17.100;2022-12-18T23:17:21;3.30;99.90
24091;DHT22;12272;52.426;17.100;2022-12-18T23:22:24;2.80;99.90
24091;DHT22;12272;52.426;17.100;2022-12-18T23:27:26;3.40;99.90
24091;DHT22;12272;52.426;17.100;2022-12-18T23:32:29;3.80;99.90
24091;DHT22;12272;52.426;17.100;2022-12-18T23:37:34;3.70;99.90
24091;DHT22;12272;52.426;17.100;2022-12-18T23:42:58;2.90;99.90
24091;DHT22;12272;52.426;17.100;2022-12-18T23:48:00;1.50;97.70
24091;DHT22;12272;52.426;17.100;2022-12-18T23:53:03;2.00;99.90
24091;DHT22;12272;52.426;17.100;2022-12-18T23:58:17;1.80;94.30
